createdAt,value
2022-12-14T00:00:03.111Z,98.0
2022-12-14T00:02:03.171Z,98.0
2022-12-14T00:04:02.900Z,97.0
2022-12-14T00:06:11.920Z,97.0
2022-12-14T00:08:03.051Z,97.0
2022-12-14T00:10:02.908Z,97.0
2022-12-14T00:12:03.445Z,97.0
2022-12-14T00:14:05.033Z,98.0
2022-12-14T00:16:07.105Z,98.0
2022-12-14T00:18:04.029Z,98.0
2022-12-14T00:20:03.388Z,97.0
2022-12-14T00:22:03.031Z,97.0
2022-12-14T00:24:03.425Z,97.0
2022-12-14T00:26:14.087Z,97.0
2022-12-14T00:28:03.463Z,98.0
2022-12-14T00:30:03.108Z,98.0
2022-12-14T00:32:03.168Z,98.0
2022-12-14T00:34:03.237Z,98.0
2022-12-14T00:36:04.334Z,98.0
2022-12-14T00:38:03.076Z,98.0
2022-12-14T00:40:04.411Z,98.0
2022-12-14T00:42:02.959Z,98.0
2022-12-14T00:44:03.239Z,98.0
2022-12-14T00:46:03.981Z,98.0
2022-12-14T00:48:03.551Z,98.0
2022-12-14T00:50:04.229Z,98.0
2022-12-14T00:52:03.143Z,98.0
2022-12-14T00:54:02.930Z,98.0
2022-12-14T00:56:07.297Z,98.0
2022-12-14T00:58:02.968Z,98.0
2022-12-14T01:00:02.948Z,98.0
2022-12-14T01:02:04.268Z,98.0
2022-12-14T01:04:12.285Z,98.0
2022-12-14T01:06:03.899Z,98.0
2022-12-14T01:08:04.020Z,98.0
2022-12-14T01:10:02.969Z,98.0
2022-12-14T01:12:02.920Z,98.0
2022-12-14T01:14:04.118Z,98.0
2022-12-14T01:16:06.866Z,98.0
2022-12-14T01:18:02.960Z,98.0
2022-12-14T01:20:04.545Z,98.0
2022-12-14T01:22:03.678Z,98.0
2022-12-14T01:24:05.646Z,98.0
2022-12-14T01:26:03.135Z,99.0
2022-12-14T01:28:02.902Z,99.0
2022-12-14T01:30:04.120Z,99.0
2022-12-14T01:32:04.127Z,99.0
2022-12-14T01:34:03.494Z,99.0
2022-12-14T01:36:06.937Z,98.0
2022-12-14T01:38:03.096Z,98.0
2022-12-14T01:40:03.060Z,98.0
2022-12-14T01:42:03.757Z,98.0
2022-12-14T01:44:14.722Z,98.0
2022-12-14T01:46:04.025Z,98.0
2022-12-14T01:48:04.390Z,98.0
2022-12-14T01:50:09.006Z,98.0
2022-12-14T01:52:09.651Z,98.0
2022-12-14T01:54:07.588Z,98.0
2022-12-14T01:56:05.209Z,98.0
2022-12-14T01:58:08.508Z,98.0
2022-12-14T02:00:07.395Z,98.0
2022-12-14T02:02:06.658Z,98.0
2022-12-14T02:04:05.116Z,98.0
2022-12-14T02:06:07.567Z,98.0
2022-12-14T02:08:05.587Z,98.0
2022-12-14T02:10:06.241Z,97.0
2022-12-14T02:12:10.173Z,97.0
2022-12-14T02:14:03.110Z,97.0
2022-12-14T02:16:03.322Z,97.0
2022-12-14T02:18:06.257Z,97.0
2022-12-14T02:20:04.443Z,96.0
2022-12-14T02:22:22.207Z,97.0
2022-12-14T02:24:21.927Z,97.0
2022-12-14T02:26:21.927Z,97.0
2022-12-14T02:28:16.802Z,96.0
2022-12-14T02:30:06.801Z,96.0
2022-12-14T02:32:16.395Z,96.0
2022-12-14T02:34:09.981Z,96.0
2022-12-14T02:36:13.921Z,96.0
2022-12-14T02:38:15.875Z,96.0
2022-12-14T02:40:19.521Z,96.0
2022-12-14T02:42:11.256Z,96.0
2022-12-14T02:44:14.511Z,96.0
2022-12-14T02:46:14.494Z,97.0
2022-12-14T02:48:09.731Z,96.0
2022-12-14T02:50:20.338Z,96.0
2022-12-14T02:52:11.875Z,96.0
2022-12-14T02:54:08.629Z,96.0
2022-12-14T02:56:09.645Z,97.0
2022-12-14T02:58:07.101Z,97.0
2022-12-14T03:00:06.178Z,97.0
2022-12-14T03:02:05.388Z,97.0
2022-12-14T03:04:03.734Z,97.0
2022-12-14T03:06:14.261Z,97.0
2022-12-14T03:08:06.772Z,97.0
2022-12-14T03:10:11.388Z,97.0
2022-12-14T03:12:08.048Z,97.0
2022-12-14T03:14:09.462Z,97.0
2022-12-14T03:16:09.661Z,97.0
2022-12-14T03:18:07.891Z,97.0
2022-12-14T03:20:07.819Z,97.0
2022-12-14T03:22:08.203Z,97.0
2022-12-14T03:24:08.164Z,98.0
2022-12-14T03:26:10.151Z,98.0
2022-12-14T03:28:08.381Z,98.0
2022-12-14T03:30:09.284Z,98.0
2022-12-14T03:32:08.598Z,98.0
2022-12-14T03:34:05.621Z,98.0
2022-12-14T03:36:10.438Z,98.0
2022-12-14T03:38:10.993Z,98.0
2022-12-14T03:40:03.108Z,98.0
2022-12-14T03:48:16.353Z,98.0
2022-12-14T03:50:08.325Z,98.0
2022-12-14T03:52:09.174Z,98.0
2022-12-14T03:54:10.628Z,98.0
2022-12-14T03:56:10.193Z,98.0
2022-12-14T03:58:19.516Z,98.0
2022-12-14T04:00:08.111Z,98.0
2022-12-14T04:02:09.955Z,98.0
2022-12-14T04:04:09.912Z,98.0
2022-12-14T04:06:08.565Z,98.0
2022-12-14T04:08:08.706Z,98.0
2022-12-14T04:10:18.782Z,98.0
2022-12-14T04:12:19.334Z,98.0
2022-12-14T04:14:19.302Z,98.0
2022-12-14T04:16:19.829Z,98.0
2022-12-14T04:18:19.153Z,98.0
2022-12-14T04:20:08.851Z,98.0
2022-12-14T04:22:08.124Z,98.0
2022-12-14T04:24:17.898Z,98.0
2022-12-14T04:26:05.239Z,98.0
2022-12-14T04:28:18.710Z,98.0
2022-12-14T04:30:05.120Z,98.0
2022-12-14T04:32:10.646Z,98.0
2022-12-14T04:34:06.788Z,98.0
2022-12-14T04:36:04.981Z,98.0
2022-12-14T04:38:08.337Z,98.0
2022-12-14T04:40:07.902Z,98.0
2022-12-14T04:42:06.773Z,99.0
2022-12-14T04:44:10.493Z,99.0
2022-12-14T04:46:09.637Z,99.0
2022-12-14T04:48:13.564Z,99.0
2022-12-14T04:50:08.264Z,99.0
2022-12-14T04:52:08.205Z,99.0
2022-12-14T04:54:11.936Z,99.0
2022-12-14T04:56:11.546Z,98.0
2022-12-14T04:58:09.854Z,98.0
2022-12-14T05:00:05.903Z,98.0
2022-12-14T05:02:09.843Z,98.0
2022-12-14T05:04:12.731Z,98.0
2022-12-14T05:06:11.520Z,98.0
2022-12-14T05:08:11.190Z,98.0
2022-12-14T05:10:08.106Z,98.0
2022-12-14T05:12:09.233Z,98.0
2022-12-14T05:14:07.427Z,98.0
2022-12-14T05:16:03.583Z,98.0
2022-12-14T05:18:04.591Z,98.0
2022-12-14T05:20:04.502Z,98.0
2022-12-14T05:22:08.263Z,98.0
2022-12-14T05:24:04.390Z,98.0
2022-12-14T05:26:02.969Z,98.0
2022-12-14T05:28:02.986Z,98.0
2022-12-14T05:30:04.397Z,99.0
2022-12-14T05:32:04.483Z,99.0
2022-12-14T05:34:03.685Z,99.0
2022-12-14T05:36:03.648Z,99.0
2022-12-14T05:38:02.978Z,99.0
2022-12-14T05:40:03.606Z,99.0
2022-12-14T05:42:03.307Z,99.0
2022-12-14T05:44:02.969Z,99.0
2022-12-14T05:46:05.550Z,99.0
2022-12-14T05:48:03.267Z,98.0
2022-12-14T05:50:03.033Z,99.0
2022-12-14T05:52:03.725Z,98.0
2022-12-14T05:54:03.048Z,98.0
2022-12-14T05:56:05.321Z,98.0
2022-12-14T05:58:02.975Z,98.0
2022-12-14T06:00:04.814Z,98.0
2022-12-14T06:02:03.983Z,98.0
2022-12-14T06:04:02.986Z,98.0
2022-12-14T06:06:04.377Z,98.0
2022-12-14T06:08:02.932Z,98.0
2022-12-14T06:10:02.970Z,98.0
2022-12-14T06:12:03.189Z,98.0
2022-12-14T06:14:03.268Z,98.0
2022-12-14T06:16:11.495Z,98.0
2022-12-14T06:18:02.996Z,98.0
2022-12-14T06:20:02.979Z,98.0
2022-12-14T06:22:02.987Z,98.0
2022-12-14T06:24:04.566Z,98.0
2022-12-14T06:26:02.960Z,98.0
2022-12-14T06:28:03.141Z,98.0
2022-12-14T06:30:03.016Z,98.0
2022-12-14T06:32:02.973Z,98.0
2022-12-14T06:34:04.180Z,98.0
2022-12-14T06:36:04.486Z,98.0
2022-12-14T06:38:02.944Z,98.0
2022-12-14T06:40:03.035Z,98.0
2022-12-14T06:42:03.150Z,98.0
2022-12-14T06:44:05.755Z,98.0
2022-12-14T06:46:13.158Z,98.0
2022-12-14T06:48:03.053Z,98.0
2022-12-14T06:50:02.960Z,98.0
2022-12-14T06:52:03.056Z,98.0
2022-12-14T06:54:03.092Z,98.0
2022-12-14T06:56:07.442Z,98.0
2022-12-14T06:58:03.380Z,98.0
2022-12-14T07:00:03.767Z,98.0
2022-12-14T07:02:03.132Z,98.0
2022-12-14T07:04:04.086Z,98.0
2022-12-14T07:06:04.648Z,98.0
2022-12-14T07:08:03.245Z,98.0
2022-12-14T07:10:04.185Z,98.0
2022-12-14T07:12:03.169Z,98.0
2022-12-14T07:14:05.736Z,98.0
2022-12-14T07:16:04.418Z,98.0
2022-12-14T07:18:03.059Z,98.0
2022-12-14T07:20:06.781Z,98.0
2022-12-14T07:22:04.287Z,98.0
2022-12-14T07:24:03.595Z,98.0
2022-12-14T07:26:06.082Z,98.0
2022-12-14T07:28:02.968Z,98.0
2022-12-14T07:30:03.208Z,98.0
2022-12-14T07:32:03.986Z,98.0
2022-12-14T07:34:02.997Z,98.0
2022-12-14T07:36:06.118Z,98.0
2022-12-14T07:38:04.586Z,98.0
2022-12-14T07:40:04.077Z,98.0
2022-12-14T07:42:03.765Z,98.0
2022-12-14T07:44:03.542Z,98.0
2022-12-14T07:46:05.639Z,98.0
2022-12-14T07:48:03.187Z,98.0
2022-12-14T07:50:03.854Z,98.0
2022-12-14T07:52:03.505Z,98.0
2022-12-14T07:54:06.422Z,98.0
2022-12-14T07:56:04.777Z,98.0
2022-12-14T07:58:02.993Z,98.0
2022-12-14T08:00:04.977Z,98.0
2022-12-14T08:02:03.472Z,98.0
2022-12-14T08:04:07.305Z,98.0
2022-12-14T08:06:06.154Z,98.0
2022-12-14T08:08:02.953Z,98.0
2022-12-14T08:10:03.004Z,98.0
2022-12-14T08:12:03.202Z,98.0
2022-12-14T08:14:05.660Z,98.0
2022-12-14T08:16:04.754Z,98.0
2022-12-14T08:18:03.347Z,98.0
2022-12-14T08:20:03.694Z,98.0
2022-12-14T08:22:02.972Z,98.0
2022-12-14T08:24:03.416Z,98.0
2022-12-14T08:26:04.702Z,98.0
2022-12-14T08:28:03.536Z,98.0
2022-12-14T08:30:03.206Z,98.0
2022-12-14T08:32:02.808Z,98.0
2022-12-14T08:34:04.572Z,98.0
2022-12-14T08:36:09.916Z,98.0
2022-12-14T08:38:03.184Z,98.0
2022-12-14T08:40:03.585Z,98.0
2022-12-14T08:42:03.745Z,98.0
2022-12-14T08:44:04.506Z,98.0
2022-12-14T08:46:03.426Z,98.0
2022-12-14T08:48:03.395Z,98.0
2022-12-14T08:50:02.976Z,98.0
2022-12-14T08:52:02.998Z,98.0
2022-12-14T08:54:03.224Z,98.0
2022-12-14T08:56:05.160Z,98.0
2022-12-14T08:58:02.975Z,98.0
2022-12-14T09:00:04.335Z,98.0
2022-12-14T09:02:03.107Z,98.0
2022-12-14T09:04:05.670Z,98.0
2022-12-14T09:06:05.815Z,98.0
2022-12-14T09:08:03.001Z,98.0
2022-12-14T09:10:02.999Z,98.0
2022-12-14T09:12:06.036Z,98.0
2022-12-14T09:14:03.014Z,98.0
2022-12-14T09:16:06.952Z,98.0
2022-12-14T09:18:03.192Z,98.0
2022-12-14T09:20:03.264Z,98.0
2022-12-14T09:22:03.681Z,98.0
2022-12-14T09:24:03.276Z,98.0
2022-12-14T09:26:05.797Z,98.0
2022-12-14T09:28:02.951Z,98.0
2022-12-14T09:30:04.340Z,98.0
2022-12-14T09:32:02.973Z,98.0
2022-12-14T09:34:03.533Z,98.0
2022-12-14T09:36:05.864Z,98.0
2022-12-14T09:38:03.230Z,98.0
2022-12-14T09:40:03.602Z,98.0
2022-12-14T09:42:18.334Z,98.0
2022-12-14T09:44:17.756Z,98.0
2022-12-14T09:46:14.877Z,98.0
2022-12-14T09:48:13.835Z,98.0
2022-12-14T09:50:05.187Z,98.0
2022-12-14T09:52:10.397Z,98.0
2022-12-14T09:54:06.925Z,98.0
2022-12-14T09:56:13.224Z,98.0
2022-12-14T09:58:11.127Z,98.0
2022-12-14T10:00:05.066Z,98.0
2022-12-14T10:02:30.920Z,98.0
2022-12-14T10:04:12.930Z,99.0
2022-12-14T10:06:22.043Z,99.0
2022-12-14T10:08:13.921Z,99.0
2022-12-14T10:10:14.030Z,99.0
2022-12-14T10:12:11.315Z,99.0
2022-12-14T10:14:11.241Z,99.0
2022-12-14T10:16:15.553Z,99.0
2022-12-14T10:18:41.284Z,99.0
2022-12-14T10:20:11.722Z,99.0
2022-12-14T10:22:09.419Z,99.0
2022-12-14T10:24:06.544Z,99.0
2022-12-14T10:26:08.375Z,99.0
2022-12-14T10:28:12.057Z,99.0
2022-12-14T10:30:07.997Z,99.0
2022-12-14T10:32:14.694Z,99.0
2022-12-14T10:34:13.331Z,99.0
2022-12-14T10:36:17.911Z,99.0
2022-12-14T10:38:07.272Z,99.0
2022-12-14T10:40:22.103Z,98.0
2022-12-14T10:42:12.258Z,98.0
2022-12-14T10:44:14.658Z,98.0
2022-12-14T10:46:14.696Z,98.0
2022-12-14T10:48:21.789Z,99.0
2022-12-14T10:50:15.281Z,99.0
2022-12-14T10:52:05.971Z,99.0
2022-12-14T10:54:12.691Z,99.0
2022-12-14T10:56:08.983Z,99.0
2022-12-14T10:58:03.889Z,98.0
2022-12-14T11:00:18.496Z,99.0
2022-12-14T11:02:07.650Z,98.0
2022-12-14T11:04:03.032Z,99.0
2022-12-14T11:06:11.329Z,99.0
2022-12-14T11:08:04.528Z,99.0
2022-12-14T11:10:17.771Z,99.0
2022-12-14T11:12:07.836Z,99.0
2022-12-14T11:14:09.932Z,98.0
2022-12-14T11:16:22.067Z,99.0
2022-12-14T11:18:15.569Z,98.0
2022-12-14T11:20:15.658Z,98.0
2022-12-14T11:22:10.612Z,98.0
2022-12-14T11:24:04.287Z,98.0
2022-12-14T11:26:06.010Z,98.0
2022-12-14T11:28:14.378Z,98.0
2022-12-14T11:30:06.674Z,99.0
2022-12-14T11:32:04.854Z,99.0
2022-12-14T11:34:05.509Z,99.0
2022-12-14T11:36:03.351Z,99.0
2022-12-14T11:38:03.001Z,99.0
2022-12-14T11:40:06.910Z,99.0
2022-12-14T11:42:04.557Z,99.0
2022-12-14T11:44:15.806Z,98.0
2022-12-14T11:46:03.767Z,98.0
2022-12-14T11:48:20.240Z,98.0
2022-12-14T11:50:03.004Z,98.0
2022-12-14T11:52:11.743Z,98.0
2022-12-14T11:54:03.731Z,99.0
2022-12-14T11:56:07.446Z,99.0
2022-12-14T11:58:04.523Z,99.0
2022-12-14T12:00:07.553Z,99.0
2022-12-14T12:02:18.753Z,99.0
2022-12-14T12:04:04.001Z,99.0
2022-12-14T12:06:07.822Z,99.0
2022-12-14T12:08:03.338Z,99.0
2022-12-14T12:10:16.214Z,99.0
2022-12-14T12:12:03.847Z,99.0
2022-12-14T12:14:07.687Z,99.0
2022-12-14T12:16:07.854Z,99.0
2022-12-14T12:18:08.821Z,99.0
2022-12-14T12:20:05.652Z,99.0
2022-12-14T12:22:04.761Z,99.0
2022-12-14T12:24:07.997Z,99.0
2022-12-14T12:26:12.062Z,99.0
2022-12-14T12:28:13.494Z,99.0
2022-12-14T12:30:07.353Z,99.0
2022-12-14T12:32:10.549Z,99.0
2022-12-14T12:34:11.569Z,99.0
2022-12-14T12:36:05.854Z,99.0
2022-12-14T12:38:14.209Z,99.0
2022-12-14T12:40:12.571Z,99.0
2022-12-14T12:42:18.743Z,99.0
2022-12-14T12:44:15.458Z,99.0
2022-12-14T12:46:06.786Z,99.0
2022-12-14T12:48:10.474Z,99.0
2022-12-14T12:50:10.826Z,99.0
2022-12-14T12:52:06.854Z,99.0
2022-12-14T12:54:08.007Z,99.0
2022-12-14T12:56:09.055Z,98.0
2022-12-14T12:58:09.049Z,99.0
2022-12-14T13:00:05.483Z,98.0
2022-12-14T13:02:19.239Z,99.0
2022-12-14T13:04:06.102Z,99.0
2022-12-14T13:06:10.865Z,99.0
2022-12-14T13:08:07.877Z,98.0
2022-12-14T13:10:12.879Z,99.0
2022-12-14T13:12:05.695Z,99.0
2022-12-14T13:14:14.055Z,99.0
2022-12-14T13:16:13.048Z,99.0
2022-12-14T13:18:33.868Z,99.0
2022-12-14T13:20:07.179Z,99.0
2022-12-14T13:22:07.175Z,99.0
2022-12-14T13:24:05.921Z,98.0
2022-12-14T13:26:55.660Z,99.0
2022-12-14T13:28:20.990Z,99.0
2022-12-14T13:30:15.444Z,99.0
2022-12-14T13:32:13.301Z,99.0
2022-12-14T13:34:16.866Z,99.0
2022-12-14T13:36:22.221Z,99.0
2022-12-14T13:38:20.329Z,99.0
2022-12-14T13:40:19.326Z,99.0
2022-12-14T13:42:08.230Z,99.0
2022-12-14T13:44:26.578Z,99.0
2022-12-14T13:46:07.902Z,99.0
2022-12-14T13:48:08.549Z,99.0
2022-12-14T13:50:35.401Z,99.0
2022-12-14T13:52:02.982Z,99.0
2022-12-14T13:54:06.777Z,99.0
2022-12-14T13:56:05.019Z,99.0
2022-12-14T13:58:16.448Z,99.0
2022-12-14T14:00:04.618Z,99.0
2022-12-14T14:02:05.077Z,99.0
2022-12-14T14:04:21.330Z,99.0
2022-12-14T14:06:09.897Z,99.0
2022-12-14T14:08:06.227Z,99.0
2022-12-14T14:10:07.035Z,98.0
2022-12-14T14:12:05.166Z,99.0
2022-12-14T14:14:12.098Z,99.0
2022-12-14T14:16:28.142Z,99.0
2022-12-14T14:18:14.552Z,99.0
2022-12-14T14:20:17.366Z,99.0
2022-12-14T14:22:24.687Z,99.0
2022-12-14T14:24:21.131Z,99.0
2022-12-14T14:26:20.749Z,98.0
2022-12-14T14:28:04.544Z,98.0
2022-12-14T14:30:04.724Z,98.0
2022-12-14T14:32:06.071Z,98.0
2022-12-14T14:34:03.802Z,98.0
2022-12-14T14:36:16.774Z,98.0
2022-12-14T14:38:10.396Z,98.0
2022-12-14T14:40:33.499Z,98.0
2022-12-14T14:42:06.236Z,98.0
2022-12-14T14:44:06.820Z,98.0
2022-12-14T14:46:06.188Z,98.0
2022-12-14T14:48:11.096Z,98.0
2022-12-14T14:50:07.234Z,98.0
2022-12-14T14:52:22.169Z,98.0
2022-12-14T14:55:15.865Z,98.0
2022-12-14T14:56:06.539Z,99.0
2022-12-14T14:58:21.872Z,98.0
2022-12-14T15:00:06.577Z,98.0
2022-12-14T15:02:14.995Z,99.0
2022-12-14T15:04:15.718Z,99.0
2022-12-14T15:06:03.828Z,99.0
2022-12-14T15:08:04.443Z,98.0
2022-12-14T15:10:22.401Z,98.0
2022-12-14T15:12:18.618Z,99.0
2022-12-14T15:14:14.735Z,99.0
2022-12-14T15:16:03.051Z,99.0
2022-12-14T15:18:16.681Z,99.0
2022-12-14T15:20:03.659Z,99.0
2022-12-14T15:22:06.778Z,99.0
2022-12-14T15:24:03.082Z,99.0
2022-12-14T15:26:16.291Z,99.0
2022-12-14T15:28:07.815Z,99.0
2022-12-14T15:30:15.105Z,99.0
2022-12-14T15:32:03.725Z,99.0
2022-12-14T15:34:04.628Z,98.0
2022-12-14T15:36:05.489Z,98.0
2022-12-14T15:38:06.009Z,98.0
2022-12-14T15:40:06.492Z,98.0
2022-12-14T15:42:05.702Z,98.0
2022-12-14T15:44:03.247Z,98.0
2022-12-14T15:46:03.544Z,98.0
2022-12-14T15:48:14.354Z,98.0
2022-12-14T15:50:21.985Z,98.0
2022-12-14T15:52:03.797Z,98.0
2022-12-14T15:54:05.483Z,98.0
2022-12-14T15:56:13.519Z,98.0
2022-12-14T15:58:10.152Z,98.0
2022-12-14T16:00:04.299Z,98.0
2022-12-14T16:02:15.490Z,98.0
2022-12-14T16:04:07.144Z,97.0
2022-12-14T16:06:05.604Z,97.0
2022-12-14T16:08:03.777Z,97.0
2022-12-14T16:10:09.134Z,97.0
2022-12-14T16:12:07.411Z,98.0
2022-12-14T16:14:10.003Z,98.0
2022-12-14T16:16:08.281Z,98.0
2022-12-14T16:18:04.426Z,98.0
2022-12-14T16:20:18.779Z,98.0
2022-12-14T16:22:21.363Z,98.0
2022-12-14T16:24:20.520Z,98.0
2022-12-14T16:26:14.371Z,98.0
2022-12-14T16:28:22.136Z,98.0
2022-12-14T16:30:16.744Z,98.0
2022-12-14T16:32:05.638Z,98.0
2022-12-14T16:34:08.919Z,98.0
2022-12-14T16:36:07.546Z,98.0
2022-12-14T16:38:09.044Z,98.0
2022-12-14T16:40:03.026Z,98.0
2022-12-14T16:42:06.603Z,98.0
2022-12-14T16:44:05.291Z,98.0
2022-12-14T16:46:13.767Z,98.0
2022-12-14T16:48:08.496Z,98.0
2022-12-14T16:50:17.853Z,98.0
2022-12-14T16:52:14.209Z,98.0
2022-12-14T16:54:06.098Z,98.0
2022-12-14T16:56:06.569Z,98.0
2022-12-14T16:58:04.474Z,98.0
2022-12-14T17:00:06.772Z,98.0
2022-12-14T17:02:03.354Z,98.0
2022-12-14T17:04:06.640Z,98.0
2022-12-14T17:06:06.914Z,98.0
2022-12-14T17:08:03.653Z,98.0
2022-12-14T17:10:04.339Z,98.0
2022-12-14T17:12:14.033Z,98.0
2022-12-14T17:14:02.975Z,98.0
2022-12-14T17:16:06.162Z,98.0
2022-12-14T17:18:05.458Z,98.0
2022-12-14T17:20:10.517Z,98.0
2022-12-14T17:22:07.434Z,98.0
2022-12-14T17:24:03.138Z,98.0
2022-12-14T17:26:03.157Z,98.0
2022-12-14T17:28:03.361Z,98.0
2022-12-14T17:30:03.214Z,98.0
2022-12-14T17:32:03.805Z,98.0
2022-12-14T17:34:03.193Z,98.0
2022-12-14T17:36:03.082Z,98.0
2022-12-14T17:38:02.956Z,98.0
2022-12-14T17:40:04.120Z,98.0
2022-12-14T17:42:03.263Z,98.0
2022-12-14T17:44:03.017Z,98.0
2022-12-14T17:46:03.098Z,98.0
2022-12-14T17:48:03.229Z,98.0
2022-12-14T17:50:03.011Z,98.0
2022-12-14T17:52:04.738Z,98.0
2022-12-14T17:54:03.191Z,99.0
2022-12-14T17:56:03.140Z,99.0
2022-12-14T17:58:03.205Z,99.0
2022-12-14T18:00:12.320Z,99.0
2022-12-14T18:02:03.066Z,99.0
2022-12-14T18:04:04.316Z,99.0
2022-12-14T18:06:04.569Z,99.0
2022-12-14T18:08:02.983Z,99.0
2022-12-14T18:10:03.348Z,99.0
2022-12-14T18:12:22.988Z,99.0
2022-12-14T18:14:03.668Z,99.0
2022-12-14T18:16:03.936Z,99.0
2022-12-14T18:18:03.858Z,99.0
2022-12-14T18:20:03.840Z,99.0
2022-12-14T18:22:03.296Z,99.0
2022-12-14T18:24:09.345Z,99.0
2022-12-14T18:26:05.020Z,99.0
2022-12-14T18:28:06.647Z,99.0
2022-12-14T18:30:04.977Z,99.0
2022-12-14T18:32:07.691Z,99.0
2022-12-14T18:34:05.204Z,99.0
2022-12-14T18:36:06.759Z,99.0
2022-12-14T18:38:08.672Z,99.0
2022-12-14T18:40:07.540Z,99.0
2022-12-14T18:42:07.424Z,99.0
2022-12-14T18:44:06.036Z,99.0
2022-12-14T18:46:06.967Z,99.0
2022-12-14T18:48:15.300Z,98.0
2022-12-14T18:50:04.648Z,98.0
2022-12-14T18:52:08.656Z,98.0
2022-12-14T18:54:09.751Z,98.0
2022-12-14T18:56:13.468Z,98.0
2022-12-14T18:58:07.207Z,98.0
2022-12-14T19:00:14.081Z,98.0
2022-12-14T19:02:06.229Z,98.0
2022-12-14T19:04:10.803Z,97.0
2022-12-14T19:06:42.057Z,97.0
2022-12-14T19:08:15.347Z,97.0
2022-12-14T19:10:16.024Z,97.0
2022-12-14T19:12:08.409Z,97.0
2022-12-14T19:14:08.353Z,97.0
2022-12-14T19:16:13.007Z,97.0
2022-12-14T19:18:11.286Z,96.0
2022-12-14T19:20:10.740Z,96.0
2022-12-14T19:22:11.374Z,96.0
2022-12-14T19:24:14.137Z,95.0
2022-12-14T19:26:07.786Z,95.0
2022-12-14T19:28:31.004Z,96.0
2022-12-14T19:30:16.921Z,97.0
2022-12-14T19:32:06.983Z,97.0
2022-12-14T19:34:06.536Z,96.0
2022-12-14T19:36:11.897Z,96.0
2022-12-14T19:38:05.941Z,96.0
2022-12-14T19:40:13.509Z,96.0
2022-12-14T19:42:10.818Z,96.0
2022-12-14T19:44:07.782Z,97.0
2022-12-14T19:46:10.532Z,95.0
2022-12-14T19:48:07.678Z,96.0
2022-12-14T19:50:07.533Z,96.0
2022-12-14T19:52:06.601Z,97.0
2022-12-14T19:54:06.647Z,97.0
2022-12-14T19:56:06.920Z,97.0
2022-12-14T19:58:07.862Z,97.0
2022-12-14T20:00:04.384Z,97.0
2022-12-14T20:02:06.489Z,97.0
2022-12-14T20:04:07.514Z,97.0
2022-12-14T20:06:07.850Z,97.0
2022-12-14T20:08:04.328Z,96.0
2022-12-14T20:10:05.468Z,97.0
2022-12-14T20:12:05.292Z,97.0
2022-12-14T20:14:05.230Z,97.0
2022-12-14T20:16:04.168Z,97.0
2022-12-14T20:18:06.143Z,95.0
2022-12-14T20:20:04.666Z,96.0
2022-12-14T20:22:07.895Z,95.0
2022-12-14T20:24:06.189Z,96.0
2022-12-14T20:26:07.150Z,94.0
2022-12-14T20:28:03.866Z,94.0
2022-12-14T20:30:04.112Z,93.0
2022-12-14T20:32:04.246Z,94.0
2022-12-14T20:34:06.878Z,94.0
2022-12-14T20:36:05.282Z,94.0
2022-12-14T20:38:03.326Z,94.0
2022-12-14T20:40:04.454Z,94.0
2022-12-14T20:42:04.615Z,94.0
2022-12-14T20:44:03.293Z,94.0
2022-12-14T20:46:05.741Z,94.0
2022-12-14T20:48:03.353Z,92.0
2022-12-14T20:50:04.139Z,92.0
2022-12-14T20:52:03.565Z,91.0
2022-12-14T20:54:05.184Z,90.0
2022-12-14T20:56:05.327Z,90.0
2022-12-14T20:58:04.603Z,92.0
2022-12-14T21:00:05.781Z,92.0
2022-12-14T21:02:03.468Z,92.0
2022-12-14T21:04:04.239Z,92.0
2022-12-14T21:06:03.820Z,92.0
2022-12-14T21:08:03.320Z,91.0
2022-12-14T21:10:03.951Z,92.0
2022-12-14T21:12:12.823Z,93.0
2022-12-14T21:14:03.037Z,94.0
2022-12-14T21:16:03.195Z,94.0
2022-12-14T21:18:03.268Z,94.0
2022-12-14T21:20:04.795Z,94.0
2022-12-14T21:22:03.370Z,94.0
2022-12-14T21:24:03.695Z,92.0
2022-12-14T21:26:03.223Z,93.0
2022-12-14T21:28:03.159Z,93.0
2022-12-14T21:30:05.597Z,93.0
2022-12-14T21:32:03.766Z,94.0
2022-12-14T21:34:03.202Z,93.0
2022-12-14T21:36:07.157Z,93.0
2022-12-14T21:38:02.995Z,92.0
2022-12-14T21:40:03.412Z,92.0
2022-12-14T21:42:12.374Z,92.0
2022-12-14T21:44:03.640Z,91.0
2022-12-14T21:46:03.329Z,91.0
2022-12-14T21:48:03.066Z,91.0
2022-12-14T21:50:02.977Z,91.0
2022-12-14T21:52:07.145Z,89.0
2022-12-14T21:54:04.219Z,90.0
2022-12-14T21:56:13.150Z,90.0
2022-12-14T21:58:12.200Z,90.0
2022-12-14T22:00:04.452Z,90.0
2022-12-14T22:02:05.245Z,90.0
2022-12-14T22:04:03.186Z,91.0
2022-12-14T22:06:03.228Z,91.0
2022-12-14T22:08:02.993Z,92.0
2022-12-14T22:10:03.874Z,93.0
2022-12-14T22:12:03.144Z,93.0
2022-12-14T22:14:03.548Z,92.0
2022-12-14T22:16:05.578Z,93.0
2022-12-14T22:18:02.998Z,92.0
2022-12-14T22:20:03.899Z,91.0
2022-12-14T22:22:03.541Z,91.0
2022-12-14T22:24:03.176Z,91.0
2022-12-14T22:26:02.949Z,91.0
2022-12-14T22:28:03.887Z,89.0
2022-12-14T22:30:04.907Z,91.0
2022-12-14T22:32:03.623Z,92.0
2022-12-14T22:34:03.723Z,91.0
2022-12-14T22:36:03.035Z,90.0
2022-12-14T22:38:03.774Z,90.0
2022-12-14T22:40:05.631Z,91.0
2022-12-14T22:42:03.078Z,88.0
2022-12-14T22:44:02.969Z,90.0
2022-12-14T22:46:04.796Z,91.0
2022-12-14T22:48:03.151Z,92.0
2022-12-14T22:50:03.176Z,91.0
2022-12-14T22:52:03.200Z,92.0
2022-12-14T22:54:03.373Z,93.0
2022-12-14T22:56:10.947Z,92.0
2022-12-14T22:58:04.052Z,92.0
2022-12-14T23:00:10.969Z,92.0
2022-12-14T23:02:04.775Z,92.0
2022-12-14T23:04:04.318Z,89.0
2022-12-14T23:06:03.603Z,91.0
2022-12-14T23:08:02.978Z,92.0
2022-12-14T23:10:12.602Z,92.0
2022-12-14T23:12:13.339Z,92.0
2022-12-14T23:14:12.201Z,92.0
2022-12-14T23:16:12.133Z,92.0
2022-12-14T23:18:13.776Z,92.0
2022-12-14T23:20:12.678Z,92.0
2022-12-14T23:22:12.305Z,92.0
2022-12-14T23:24:12.666Z,92.0
2022-12-14T23:26:13.624Z,92.0
2022-12-14T23:28:13.269Z,93.0
2022-12-14T23:30:12.174Z,93.0
2022-12-14T23:32:12.021Z,93.0
2022-12-14T23:34:12.716Z,93.0
2022-12-14T23:36:12.084Z,93.0
2022-12-14T23:38:13.691Z,93.0
2022-12-14T23:40:12.668Z,93.0
2022-12-14T23:42:12.620Z,93.0
2022-12-14T23:44:12.006Z,94.0
2022-12-14T23:46:14.248Z,94.0
2022-12-14T23:48:12.253Z,94.0
2022-12-14T23:50:12.825Z,94.0
2022-12-14T23:52:12.019Z,94.0
2022-12-14T23:54:12.070Z,94.0
2022-12-14T23:56:11.996Z,95.0
2022-12-14T23:58:12.212Z,95.0
